Ingomar, MT

10:18 PM MDT on July 28, 2016 (GMT -0600)
Melstone | | Change Station

Elev 2917 ft 46.60 °N, 107.87 °W | Updated 2 minutes ago

Clear
Clear
66.8 °F
Feels Like 66.8 °F
N
2.0
Wind Variable Wind from NE
Gusts 4.0 mph

Today
High -- | Low -- °F
--% Chance of Precip.
Yesterday
High -- | Low -- °F
Precip. -- in
Pressure 30.06 in
Visibility 10.0 miles
Clouds Clear
Dew Point 50 °F
Humidity 56%
Rainfall 0.00 in
Snow Depth Not available.
5:46 AM 8:46 PM
Waning Crescent, 26% visible
METAR KBIL 290353Z 09004KT 10SM CLR 22/10 A3014 RMK AO2 SLP178 T02220100
Pressure 30.06 in
Visibility 10.0 miles
Clouds Clear
Dew Point 50 °F
Humidity 56%
Rainfall 0.00 in
Snow Depth Not available.
5:46 AM 8:46 PM
Waning Crescent, 26% visible
METAR KBIL 290353Z 09004KT 10SM CLR 22/10 A3014 RMK AO2 SLP178 T02220100

10-Day Weather Forecast

Almanac

Astronomy

Jul. 28, 2016 Rise Set
Actual Time
Civil Twilight
Nautical Twilight
Astronomical Twilight
Moon
Length of Visible Light
Length of Day
Tomorrow will be .
, % of the Moon is Illuminated

Today's Extremes

State Highs State Lows

Community

WunderPhotos

Upload Photos

1,928,293 photos uploaded!

WunderBlog® & News

Nearby

Air Quality

  Air Quality AQ Index Pollutant
Not available.

Snow Depth

Station Depth Elevation

Earthquake Activity

City Distance Mag. Time & Date
Minimum magnitude displayed is 2.5.

Coastal Water Temperatures

Place Temperature

Stations

Nearby Weather Stations

Station Location Temp. Windchill Dew Point Humidity Wind Precip. Elev Updated Type
                   

Watches & Warnings

There are currently no watches in effect.